Terminal Aerodrome Forecast
Issued by NWS Cleveland, OH

Home | Current Version | Previous Version | Graphics & Text | Print | Product List | Glossary On
Versions: 1 2 3 4 5 6 7 8 9 10 11 12 13 14 15 16 17 18 19
981
FTUS41 KCLE 201004 AAA
TAFMFD
TAF AMD
KMFD 201004Z 2010/2106 20016G26KT P6SM SCT250
     FM201400 21014KT P6SM BKN250
     FM202000 22012KT P6SM BKN018
     FM210100 20008KT P6SM OVC009=

USA.gov is the U.S. government's official web portal to all federal, state and local government web resources and services.